sensor_id;sensor_type;location;lat;lon;timestamp;P1;durP1;ratioP1;P2;durP2;ratioP2
22965;SDS011;11649;48.090;9.754;2023-07-29T00:02:18;6.95;;;4.90;;
22965;SDS011;11649;48.090;9.754;2023-07-29T00:04:45;5.85;;;4.95;;
22965;SDS011;11649;48.090;9.754;2023-07-29T00:07:13;7.43;;;4.25;;
22965;SDS011;11649;48.090;9.754;2023-07-29T00:09:40;9.00;;;4.57;;
22965;SDS011;11649;48.090;9.754;2023-07-29T00:12:06;9.63;;;4.47;;
22965;SDS011;11649;48.090;9.754;2023-07-29T00:14:33;5.78;;;4.50;;
22965;SDS011;11649;48.090;9.754;2023-07-29T00:17:00;5.72;;;4.03;;
22965;SDS011;11649;48.090;9.754;2023-07-29T00:19:27;6.13;;;4.15;;
22965;SDS011;11649;48.090;9.754;2023-07-29T00:21:54;5.25;;;4.30;;
22965;SDS011;11649;48.090;9.754;2023-07-29T00:24:21;8.15;;;3.83;;
22965;SDS011;11649;48.090;9.754;2023-07-29T00:26:48;6.15;;;3.90;;
22965;SDS011;11649;48.090;9.754;2023-07-29T00:29:15;6.55;;;4.22;;
22965;SDS011;11649;48.090;9.754;2023-07-29T00:31:41;6.93;;;4.18;;
22965;SDS011;11649;48.090;9.754;2023-07-29T00:34:08;6.22;;;3.80;;
22965;SDS011;11649;48.090;9.754;2023-07-29T00:36:35;4.40;;;4.00;;
22965;SDS011;11649;48.090;9.754;2023-07-29T00:39:02;7.60;;;4.40;;
22965;SDS011;11649;48.090;9.754;2023-07-29T00:41:29;7.55;;;3.92;;
22965;SDS011;11649;48.090;9.754;2023-07-29T00:43:56;6.28;;;4.93;;
22965;SDS011;11649;48.090;9.754;2023-07-29T00:46:23;6.35;;;4.53;;
22965;SDS011;11649;48.090;9.754;2023-07-29T00:48:50;6.25;;;4.47;;
22965;SDS011;11649;48.090;9.754;2023-07-29T00:51:17;7.32;;;4.57;;
22965;SDS011;11649;48.090;9.754;2023-07-29T00:53:44;6.63;;;4.80;;
22965;SDS011;11649;48.090;9.754;2023-07-29T00:56:11;9.00;;;5.53;;
22965;SDS011;11649;48.090;9.754;2023-07-29T00:58:38;9.43;;;4.70;;
22965;SDS011;11649;48.090;9.754;2023-07-29T01:01:04;8.00;;;4.40;;
22965;SDS011;11649;48.090;9.754;2023-07-29T01:03:31;7.45;;;4.47;;
22965;SDS011;11649;48.090;9.754;2023-07-29T01:06:09;6.97;;;4.70;;
22965;SDS011;11649;48.090;9.754;2023-07-29T01:09:03;6.28;;;4.93;;
22965;SDS011;11649;48.090;9.754;2023-07-29T01:14:36;6.95;;;4.40;;
22965;SDS011;11649;48.090;9.754;2023-07-29T01:17:24;7.35;;;5.50;;
22965;SDS011;11649;48.090;9.754;2023-07-29T01:22:34;6.25;;;4.28;;
22965;SDS011;11649;48.090;9.754;2023-07-29T01:25:02;6.85;;;4.80;;
22965;SDS011;11649;48.090;9.754;2023-07-29T01:27:30;5.72;;;4.70;;
22965;SDS011;11649;48.090;9.754;2023-07-29T01:29:57;5.05;;;4.55;;
22965;SDS011;11649;48.090;9.754;2023-07-29T01:33:14;5.97;;;4.85;;
22965;SDS011;11649;48.090;9.754;2023-07-29T01:35:21;6.05;;;4.75;;
22965;SDS011;11649;48.090;9.754;2023-07-29T01:37:55;7.22;;;4.88;;
22965;SDS011;11649;48.090;9.754;2023-07-29T01:40:26;7.78;;;4.78;;
22965;SDS011;11649;48.090;9.754;2023-07-29T01:42:54;9.00;;;4.40;;
22965;SDS011;11649;48.090;9.754;2023-07-29T01:45:29;4.75;;;4.20;;
22965;SDS011;11649;48.090;9.754;2023-07-29T01:48:01;7.50;;;4.85;;
22965;SDS011;11649;48.090;9.754;2023-07-29T01:50:28;6.82;;;4.57;;
22965;SDS011;11649;48.090;9.754;2023-07-29T01:52:55;8.07;;;4.45;;
22965;SDS011;11649;48.090;9.754;2023-07-29T01:55:22;6.30;;;4.55;;
22965;SDS011;11649;48.090;9.754;2023-07-29T01:57:48;6.15;;;4.28;;
22965;SDS011;11649;48.090;9.754;2023-07-29T02:00:16;7.45;;;4.30;;
22965;SDS011;11649;48.090;9.754;2023-07-29T02:02:42;8.02;;;4.32;;
22965;SDS011;11649;48.090;9.754;2023-07-29T02:05:09;5.65;;;5.00;;
22965;SDS011;11649;48.090;9.754;2023-07-29T02:07:36;9.82;;;4.53;;
22965;SDS011;11649;48.090;9.754;2023-07-29T02:10:03;8.40;;;4.45;;
22965;SDS011;11649;48.090;9.754;2023-07-29T02:12:30;6.22;;;4.50;;
22965;SDS011;11649;48.090;9.754;2023-07-29T02:14:57;6.55;;;4.70;;
22965;SDS011;11649;48.090;9.754;2023-07-29T02:17:23;6.20;;;4.60;;
22965;SDS011;11649;48.090;9.754;2023-07-29T02:19:51;7.00;;;4.63;;
22965;SDS011;11649;48.090;9.754;2023-07-29T02:22:18;5.63;;;4.38;;
22965;SDS011;11649;48.090;9.754;2023-07-29T02:24:45;5.35;;;4.25;;
22965;SDS011;11649;48.090;9.754;2023-07-29T02:27:12;5.15;;;4.30;;
22965;SDS011;11649;48.090;9.754;2023-07-29T02:29:39;6.63;;;4.50;;
22965;SDS011;11649;48.090;9.754;2023-07-29T02:32:05;5.97;;;4.50;;
22965;SDS011;11649;48.090;9.754;2023-07-29T02:34:32;4.95;;;4.35;;
22965;SDS011;11649;48.090;9.754;2023-07-29T02:36:59;4.85;;;3.85;;
22965;SDS011;11649;48.090;9.754;2023-07-29T02:39:26;5.95;;;4.03;;
22965;SDS011;11649;48.090;9.754;2023-07-29T02:41:52;6.10;;;3.95;;
22965;SDS011;11649;48.090;9.754;2023-07-29T02:44:21;7.20;;;4.15;;
22965;SDS011;11649;48.090;9.754;2023-07-29T02:46:48;8.43;;;3.80;;
22965;SDS011;11649;48.090;9.754;2023-07-29T02:49:15;6.75;;;4.50;;
22965;SDS011;11649;48.090;9.754;2023-07-29T02:51:41;6.10;;;4.25;;
22965;SDS011;11649;48.090;9.754;2023-07-29T02:54:08;8.25;;;4.43;;
22965;SDS011;11649;48.090;9.754;2023-07-29T02:56:35;10.35;;;4.28;;
22965;SDS011;11649;48.090;9.754;2023-07-29T02:59:02;6.38;;;4.60;;
22965;SDS011;11649;48.090;9.754;2023-07-29T03:01:29;7.55;;;4.38;;
22965;SDS011;11649;48.090;9.754;2023-07-29T03:03:55;6.43;;;4.43;;
22965;SDS011;11649;48.090;9.754;2023-07-29T03:06:23;5.97;;;3.90;;
22965;SDS011;11649;48.090;9.754;2023-07-29T03:08:50;6.95;;;4.00;;
22965;SDS011;11649;48.090;9.754;2023-07-29T03:11:17;9.38;;;4.57;;
22965;SDS011;11649;48.090;9.754;2023-07-29T03:13:43;7.53;;;4.90;;
22965;SDS011;11649;48.090;9.754;2023-07-29T03:16:14;6.57;;;4.47;;
22965;SDS011;11649;48.090;9.754;2023-07-29T03:18:43;6.03;;;4.18;;
22965;SDS011;11649;48.090;9.754;2023-07-29T03:21:10;7.10;;;4.65;;
22965;SDS011;11649;48.090;9.754;2023-07-29T03:23:37;6.22;;;4.50;;
22965;SDS011;11649;48.090;9.754;2023-07-29T03:26:09;6.90;;;4.40;;
22965;SDS011;11649;48.090;9.754;2023-07-29T03:28:37;4.43;;;3.90;;
22965;SDS011;11649;48.090;9.754;2023-07-29T03:31:06;6.20;;;4.35;;
22965;SDS011;11649;48.090;9.754;2023-07-29T03:33:33;8.13;;;4.43;;
22965;SDS011;11649;48.090;9.754;2023-07-29T03:36:00;8.18;;;4.20;;
22965;SDS011;11649;48.090;9.754;2023-07-29T03:38:27;7.47;;;4.43;;
22965;SDS011;11649;48.090;9.754;2023-07-29T03:40:54;7.05;;;4.60;;
22965;SDS011;11649;48.090;9.754;2023-07-29T03:43:21;7.45;;;4.60;;
22965;SDS011;11649;48.090;9.754;2023-07-29T03:45:48;7.85;;;4.47;;
22965;SDS011;11649;48.090;9.754;2023-07-29T03:48:15;5.32;;;4.57;;
22965;SDS011;11649;48.090;9.754;2023-07-29T03:50:41;7.68;;;4.68;;
22965;SDS011;11649;48.090;9.754;2023-07-29T03:53:08;8.55;;;4.55;;
22965;SDS011;11649;48.090;9.754;2023-07-29T03:55:36;10.52;;;4.60;;
22965;SDS011;11649;48.090;9.754;2023-07-29T03:58:03;6.82;;;4.20;;
22965;SDS011;11649;48.090;9.754;2023-07-29T04:00:29;6.20;;;4.47;;
22965;SDS011;11649;48.090;9.754;2023-07-29T04:02:56;6.40;;;4.50;;
22965;SDS011;11649;48.090;9.754;2023-07-29T04:05:23;7.65;;;4.40;;
22965;SDS011;11649;48.090;9.754;2023-07-29T04:07:50;6.30;;;4.68;;
22965;SDS011;11649;48.090;9.754;2023-07-29T04:10:17;7.82;;;5.10;;
22965;SDS011;11649;48.090;9.754;2023-07-29T04:12:44;6.75;;;4.97;;
22965;SDS011;11649;48.090;9.754;2023-07-29T04:15:11;8.20;;;4.70;;
22965;SDS011;11649;48.090;9.754;2023-07-29T04:17:37;6.40;;;4.55;;
22965;SDS011;11649;48.090;9.754;2023-07-29T04:20:04;6.50;;;4.93;;
22965;SDS011;11649;48.090;9.754;2023-07-29T04:22:34;9.32;;;5.18;;
22965;SDS011;11649;48.090;9.754;2023-07-29T04:25:00;7.13;;;4.63;;
22965;SDS011;11649;48.090;9.754;2023-07-29T04:27:27;5.38;;;4.88;;
22965;SDS011;11649;48.090;9.754;2023-07-29T04:29:54;6.03;;;4.53;;
22965;SDS011;11649;48.090;9.754;2023-07-29T04:32:21;5.45;;;4.95;;
22965;SDS011;11649;48.090;9.754;2023-07-29T04:34:47;7.35;;;5.45;;
22965;SDS011;11649;48.090;9.754;2023-07-29T04:37:14;11.18;;;4.80;;
22965;SDS011;11649;48.090;9.754;2023-07-29T04:39:41;6.15;;;4.40;;
22965;SDS011;11649;48.090;9.754;2023-07-29T04:42:08;8.65;;;4.90;;
22965;SDS011;11649;48.090;9.754;2023-07-29T04:44:34;9.68;;;5.30;;
22965;SDS011;11649;48.090;9.754;2023-07-29T04:47:01;8.07;;;5.13;;
22965;SDS011;11649;48.090;9.754;2023-07-29T04:49:28;7.72;;;4.93;;
22965;SDS011;11649;48.090;9.754;2023-07-29T04:51:55;9.32;;;5.93;;
22965;SDS011;11649;48.090;9.754;2023-07-29T04:54:21;9.80;;;5.93;;
22965;SDS011;11649;48.090;9.754;2023-07-29T04:56:48;9.27;;;6.28;;
22965;SDS011;11649;48.090;9.754;2023-07-29T04:59:15;7.57;;;6.78;;
22965;SDS011;11649;48.090;9.754;2023-07-29T05:01:42;7.75;;;5.70;;
22965;SDS011;11649;48.090;9.754;2023-07-29T05:04:09;9.40;;;6.18;;
22965;SDS011;11649;48.090;9.754;2023-07-29T05:06:36;9.13;;;5.95;;
22965;SDS011;11649;48.090;9.754;2023-07-29T05:09:17;12.02;;;5.88;;
22965;SDS011;11649;48.090;9.754;2023-07-29T05:11:46;8.50;;;6.00;;
22965;SDS011;11649;48.090;9.754;2023-07-29T05:14:13;9.50;;;6.50;;
22965;SDS011;11649;48.090;9.754;2023-07-29T05:16:41;9.30;;;6.32;;
22965;SDS011;11649;48.090;9.754;2023-07-29T05:19:08;7.28;;;5.78;;
22965;SDS011;11649;48.090;9.754;2023-07-29T05:21:35;7.75;;;5.40;;
22965;SDS011;11649;48.090;9.754;2023-07-29T05:24:03;10.40;;;5.82;;
22965;SDS011;11649;48.090;9.754;2023-07-29T05:26:30;7.53;;;5.68;;
22965;SDS011;11649;48.090;9.754;2023-07-29T05:28:57;7.18;;;5.63;;
22965;SDS011;11649;48.090;9.754;2023-07-29T05:31:24;7.00;;;4.85;;
22965;SDS011;11649;48.090;9.754;2023-07-29T05:33:51;7.28;;;5.40;;
22965;SDS011;11649;48.090;9.754;2023-07-29T05:36:17;7.15;;;5.20;;
22965;SDS011;11649;48.090;9.754;2023-07-29T05:38:45;9.63;;;5.25;;
22965;SDS011;11649;48.090;9.754;2023-07-29T05:41:12;8.82;;;5.53;;
22965;SDS011;11649;48.090;9.754;2023-07-29T05:43:39;7.65;;;5.50;;
22965;SDS011;11649;48.090;9.754;2023-07-29T05:46:06;6.43;;;5.13;;
22965;SDS011;11649;48.090;9.754;2023-07-29T05:48:33;7.90;;;5.07;;
22965;SDS011;11649;48.090;9.754;2023-07-29T05:51:00;7.90;;;5.70;;
22965;SDS011;11649;48.090;9.754;2023-07-29T05:53:26;6.75;;;5.10;;
22965;SDS011;11649;48.090;9.754;2023-07-29T05:55:53;7.53;;;4.80;;
22965;SDS011;11649;48.090;9.754;2023-07-29T05:58:20;8.00;;;4.95;;
22965;SDS011;11649;48.090;9.754;2023-07-29T06:00:47;5.55;;;4.88;;
22965;SDS011;11649;48.090;9.754;2023-07-29T06:03:15;6.25;;;4.70;;
22965;SDS011;11649;48.090;9.754;2023-07-29T06:05:42;5.57;;;4.95;;
22965;SDS011;11649;48.090;9.754;2023-07-29T06:08:10;5.57;;;4.47;;
22965;SDS011;11649;48.090;9.754;2023-07-29T06:10:38;6.90;;;4.70;;
22965;SDS011;11649;48.090;9.754;2023-07-29T06:13:04;5.82;;;4.80;;
22965;SDS011;11649;48.090;9.754;2023-07-29T06:15:32;7.45;;;4.93;;
22965;SDS011;11649;48.090;9.754;2023-07-29T06:17:59;7.18;;;4.90;;
22965;SDS011;11649;48.090;9.754;2023-07-29T06:20:26;5.38;;;4.88;;
22965;SDS011;11649;48.090;9.754;2023-07-29T06:22:52;6.63;;;4.70;;
22965;SDS011;11649;48.090;9.754;2023-07-29T06:25:19;8.98;;;4.78;;
22965;SDS011;11649;48.090;9.754;2023-07-29T06:27:46;5.60;;;4.72;;
22965;SDS011;11649;48.090;9.754;2023-07-29T06:30:13;7.85;;;5.20;;
22965;SDS011;11649;48.090;9.754;2023-07-29T06:32:40;6.47;;;4.93;;
22965;SDS011;11649;48.090;9.754;2023-07-29T06:35:06;6.53;;;5.88;;
22965;SDS011;11649;48.090;9.754;2023-07-29T06:37:33;6.53;;;5.30;;
22965;SDS011;11649;48.090;9.754;2023-07-29T06:40:00;7.00;;;5.68;;
22965;SDS011;11649;48.090;9.754;2023-07-29T06:42:27;8.27;;;5.60;;
22965;SDS011;11649;48.090;9.754;2023-07-29T06:44:54;6.10;;;5.50;;
22965;SDS011;11649;48.090;9.754;2023-07-29T06:47:35;7.28;;;5.40;;
22965;SDS011;11649;48.090;9.754;2023-07-29T06:50:01;7.25;;;5.55;;
22965;SDS011;11649;48.090;9.754;2023-07-29T06:52:28;7.57;;;5.80;;
22965;SDS011;11649;48.090;9.754;2023-07-29T06:54:55;10.73;;;5.72;;
22965;SDS011;11649;48.090;9.754;2023-07-29T06:57:23;8.40;;;5.95;;
22965;SDS011;11649;48.090;9.754;2023-07-29T06:59:50;6.10;;;5.40;;
22965;SDS011;11649;48.090;9.754;2023-07-29T07:02:16;7.57;;;5.53;;
22965;SDS011;11649;48.090;9.754;2023-07-29T07:04:43;6.13;;;5.53;;
22965;SDS011;11649;48.090;9.754;2023-07-29T07:07:10;8.48;;;6.00;;
22965;SDS011;11649;48.090;9.754;2023-07-29T07:09:37;6.45;;;5.15;;
22965;SDS011;11649;48.090;9.754;2023-07-29T07:12:04;6.75;;;5.53;;
22965;SDS011;11649;48.090;9.754;2023-07-29T07:14:31;6.32;;;5.20;;
22965;SDS011;11649;48.090;9.754;2023-07-29T07:16:57;6.40;;;5.25;;
22965;SDS011;11649;48.090;9.754;2023-07-29T07:19:24;8.38;;;5.13;;
22965;SDS011;11649;48.090;9.754;2023-07-29T07:21:56;6.10;;;4.95;;
22965;SDS011;11649;48.090;9.754;2023-07-29T07:24:23;7.05;;;5.50;;
22965;SDS011;11649;48.090;9.754;2023-07-29T07:26:50;8.00;;;5.60;;
22965;SDS011;11649;48.090;9.754;2023-07-29T07:29:16;9.10;;;5.43;;
22965;SDS011;11649;48.090;9.754;2023-07-29T07:31:47;5.80;;;5.20;;
22965;SDS011;11649;48.090;9.754;2023-07-29T07:34:19;8.15;;;5.80;;
22965;SDS011;11649;48.090;9.754;2023-07-29T07:36:46;6.18;;;5.18;;
22965;SDS011;11649;48.090;9.754;2023-07-29T07:39:13;6.47;;;5.30;;
22965;SDS011;11649;48.090;9.754;2023-07-29T07:41:40;6.93;;;5.50;;
22965;SDS011;11649;48.090;9.754;2023-07-29T07:44:07;6.25;;;5.32;;
22965;SDS011;11649;48.090;9.754;2023-07-29T07:46:35;6.22;;;5.30;;
22965;SDS011;11649;48.090;9.754;2023-07-29T07:49:02;5.88;;;5.22;;
22965;SDS011;11649;48.090;9.754;2023-07-29T07:51:29;7.65;;;5.40;;
22965;SDS011;11649;48.090;9.754;2023-07-29T07:53:56;7.13;;;5.88;;
22965;SDS011;11649;48.090;9.754;2023-07-29T07:56:22;6.82;;;5.30;;
22965;SDS011;11649;48.090;9.754;2023-07-29T07:58:50;8.48;;;5.43;;
22965;SDS011;11649;48.090;9.754;2023-07-29T08:01:17;5.68;;;4.97;;
22965;SDS011;11649;48.090;9.754;2023-07-29T08:03:44;6.05;;;5.07;;
22965;SDS011;11649;48.090;9.754;2023-07-29T08:06:10;6.68;;;5.43;;
22965;SDS011;11649;48.090;9.754;2023-07-29T08:08:37;8.13;;;5.10;;
22965;SDS011;11649;48.090;9.754;2023-07-29T08:11:04;7.15;;;5.15;;
22965;SDS011;11649;48.090;9.754;2023-07-29T08:13:31;9.20;;;5.35;;
22965;SDS011;11649;48.090;9.754;2023-07-29T08:15:58;6.43;;;5.57;;
22965;SDS011;11649;48.090;9.754;2023-07-29T08:18:24;6.32;;;5.32;;
22965;SDS011;11649;48.090;9.754;2023-07-29T08:20:52;6.75;;;4.90;;
22965;SDS011;11649;48.090;9.754;2023-07-29T08:23:20;7.50;;;5.22;;
22965;SDS011;11649;48.090;9.754;2023-07-29T08:25:54;6.10;;;5.20;;
22965;SDS011;11649;48.090;9.754;2023-07-29T08:28:22;6.40;;;4.55;;
22965;SDS011;11649;48.090;9.754;2023-07-29T08:30:50;5.57;;;4.30;;
22965;SDS011;11649;48.090;9.754;2023-07-29T08:33:17;7.05;;;5.07;;
22965;SDS011;11649;48.090;9.754;2023-07-29T08:35:43;8.73;;;4.80;;
22965;SDS011;11649;48.090;9.754;2023-07-29T08:38:10;7.78;;;4.70;;
22965;SDS011;11649;48.090;9.754;2023-07-29T08:40:38;9.55;;;4.75;;
22965;SDS011;11649;48.090;9.754;2023-07-29T08:43:11;6.40;;;4.70;;
22965;SDS011;11649;48.090;9.754;2023-07-29T08:45:40;5.93;;;4.60;;
22965;SDS011;11649;48.090;9.754;2023-07-29T08:48:08;6.03;;;4.38;;
22965;SDS011;11649;48.090;9.754;2023-07-29T08:50:36;11.77;;;4.50;;
22965;SDS011;11649;48.090;9.754;2023-07-29T08:53:04;5.00;;;4.50;;
22965;SDS011;11649;48.090;9.754;2023-07-29T08:55:34;5.93;;;4.72;;
22965;SDS011;11649;48.090;9.754;2023-07-29T08:58:01;5.25;;;4.43;;
22965;SDS011;11649;48.090;9.754;2023-07-29T09:00:29;5.60;;;4.60;;
22965;SDS011;11649;48.090;9.754;2023-07-29T09:02:56;7.22;;;4.40;;
22965;SDS011;11649;48.090;9.754;2023-07-29T09:05:28;5.60;;;4.25;;
22965;SDS011;11649;48.090;9.754;2023-07-29T09:07:55;5.18;;;4.30;;
22965;SDS011;11649;48.090;9.754;2023-07-29T09:10:22;5.45;;;4.35;;
22965;SDS011;11649;48.090;9.754;2023-07-29T09:12:52;4.93;;;4.38;;
22965;SDS011;11649;48.090;9.754;2023-07-29T09:15:26;5.50;;;4.28;;
22965;SDS011;11649;48.090;9.754;2023-07-29T09:17:57;4.82;;;4.07;;
22965;SDS011;11649;48.090;9.754;2023-07-29T09:20:28;7.50;;;3.50;;
22965;SDS011;11649;48.090;9.754;2023-07-29T09:22:55;4.63;;;3.35;;
22965;SDS011;11649;48.090;9.754;2023-07-29T09:25:26;4.05;;;3.47;;
22965;SDS011;11649;48.090;9.754;2023-07-29T09:28:01;7.40;;;3.47;;
22965;SDS011;11649;48.090;9.754;2023-07-29T09:30:28;4.15;;;3.70;;
22965;SDS011;11649;48.090;9.754;2023-07-29T09:32:58;4.55;;;3.70;;
22965;SDS011;11649;48.090;9.754;2023-07-29T09:35:27;4.82;;;3.90;;
22965;SDS011;11649;48.090;9.754;2023-07-29T09:37:54;6.05;;;3.63;;
22965;SDS011;11649;48.090;9.754;2023-07-29T09:40:21;5.95;;;3.95;;
22965;SDS011;11649;48.090;9.754;2023-07-29T09:42:49;4.72;;;3.70;;
22965;SDS011;11649;48.090;9.754;2023-07-29T09:45:22;3.72;;;3.38;;
22965;SDS011;11649;48.090;9.754;2023-07-29T09:47:53;7.93;;;3.42;;
22965;SDS011;11649;48.090;9.754;2023-07-29T09:50:24;8.25;;;3.50;;
22965;SDS011;11649;48.090;9.754;2023-07-29T09:52:51;6.45;;;3.70;;
22965;SDS011;11649;48.090;9.754;2023-07-29T09:55:20;7.93;;;3.58;;
22965;SDS011;11649;48.090;9.754;2023-07-29T09:57:56;11.70;;;3.65;;
22965;SDS011;11649;48.090;9.754;2023-07-29T10:00:28;5.93;;;3.50;;
22965;SDS011;11649;48.090;9.754;2023-07-29T10:02:56;4.88;;;3.75;;
22965;SDS011;11649;48.090;9.754;2023-07-29T10:05:28;6.05;;;3.40;;
22965;SDS011;11649;48.090;9.754;2023-07-29T10:07:55;5.13;;;3.92;;
22965;SDS011;11649;48.090;9.754;2023-07-29T10:10:23;7.43;;;3.72;;
22965;SDS011;11649;48.090;9.754;2023-07-29T10:12:50;5.38;;;3.33;;
22965;SDS011;11649;48.090;9.754;2023-07-29T10:15:16;6.07;;;3.70;;
22965;SDS011;11649;48.090;9.754;2023-07-29T10:17:43;3.88;;;3.30;;
22965;SDS011;11649;48.090;9.754;2023-07-29T10:20:15;3.92;;;2.95;;
22965;SDS011;11649;48.090;9.754;2023-07-29T10:22:43;3.42;;;3.00;;
22965;SDS011;11649;48.090;9.754;2023-07-29T10:25:15;4.65;;;3.35;;
22965;SDS011;11649;48.090;9.754;2023-07-29T10:27:47;6.63;;;3.60;;
22965;SDS011;11649;48.090;9.754;2023-07-29T10:30:15;4.28;;;3.88;;
22965;SDS011;11649;48.090;9.754;2023-07-29T10:32:43;5.88;;;4.53;;
22965;SDS011;11649;48.090;9.754;2023-07-29T10:35:11;4.88;;;3.75;;
22965;SDS011;11649;48.090;9.754;2023-07-29T10:37:39;5.47;;;3.85;;
22965;SDS011;11649;48.090;9.754;2023-07-29T10:40:08;5.82;;;4.38;;
22965;SDS011;11649;48.090;9.754;2023-07-29T10:42:37;5.30;;;3.80;;
22965;SDS011;11649;48.090;9.754;2023-07-29T10:45:24;5.80;;;3.67;;
22965;SDS011;11649;48.090;9.754;2023-07-29T10:47:51;3.88;;;3.40;;
22965;SDS011;11649;48.090;9.754;2023-07-29T10:50:19;3.97;;;3.45;;
22965;SDS011;11649;48.090;9.754;2023-07-29T10:52:49;6.47;;;3.67;;
22965;SDS011;11649;48.090;9.754;2023-07-29T11:00:19;3.60;;;3.00;;
22965;SDS011;11649;48.090;9.754;2023-07-29T11:02:59;3.63;;;3.17;;
22965;SDS011;11649;48.090;9.754;2023-07-29T11:05:45;4.00;;;3.00;;
22965;SDS011;11649;48.090;9.754;2023-07-29T11:08:27;5.55;;;3.40;;
22965;SDS011;11649;48.090;9.754;2023-07-29T11:13:29;4.35;;;3.03;;
22965;SDS011;11649;48.090;9.754;2023-07-29T11:15:57;7.00;;;3.38;;
22965;SDS011;11649;48.090;9.754;2023-07-29T11:18:29;4.25;;;3.30;;
22965;SDS011;11649;48.090;9.754;2023-07-29T11:21:02;4.38;;;3.17;;
22965;SDS011;11649;48.090;9.754;2023-07-29T11:23:33;5.78;;;3.67;;
22965;SDS011;11649;48.090;9.754;2023-07-29T11:26:02;4.32;;;3.45;;
22965;SDS011;11649;48.090;9.754;2023-07-29T11:28:30;4.47;;;3.20;;
22965;SDS011;11649;48.090;9.754;2023-07-29T11:30:57;3.70;;;3.05;;
22965;SDS011;11649;48.090;9.754;2023-07-29T11:33:25;3.83;;;2.90;;
22965;SDS011;11649;48.090;9.754;2023-07-29T11:35:54;5.63;;;3.60;;
22965;SDS011;11649;48.090;9.754;2023-07-29T11:38:22;5.38;;;3.55;;
22965;SDS011;11649;48.090;9.754;2023-07-29T11:40:59;5.85;;;3.42;;
22965;SDS011;11649;48.090;9.754;2023-07-29T11:43:29;3.50;;;3.20;;
22965;SDS011;11649;48.090;9.754;2023-07-29T11:45:56;3.53;;;2.85;;
22965;SDS011;11649;48.090;9.754;2023-07-29T11:48:26;4.68;;;2.80;;
22965;SDS011;11649;48.090;9.754;2023-07-29T11:51:02;3.63;;;2.67;;
22965;SDS011;11649;48.090;9.754;2023-07-29T11:53:30;3.78;;;2.85;;
22965;SDS011;11649;48.090;9.754;2023-07-29T11:55:57;10.57;;;2.92;;
22965;SDS011;11649;48.090;9.754;2023-07-29T11:58:24;4.78;;;2.55;;
22965;SDS011;11649;48.090;9.754;2023-07-29T12:00:52;3.08;;;2.63;;
22965;SDS011;11649;48.090;9.754;2023-07-29T12:03:19;2.90;;;2.42;;
22965;SDS011;11649;48.090;9.754;2023-07-29T12:05:47;2.47;;;2.28;;
22965;SDS011;11649;48.090;9.754;2023-07-29T12:08:15;3.65;;;2.40;;
22965;SDS011;11649;48.090;9.754;2023-07-29T12:10:42;2.60;;;2.40;;
22965;SDS011;11649;48.090;9.754;2023-07-29T12:13:09;3.75;;;2.33;;
22965;SDS011;11649;48.090;9.754;2023-07-29T12:15:37;4.45;;;2.30;;
22965;SDS011;11649;48.090;9.754;2023-07-29T12:18:05;5.25;;;2.70;;
22965;SDS011;11649;48.090;9.754;2023-07-29T12:20:32;4.32;;;2.50;;
22965;SDS011;11649;48.090;9.754;2023-07-29T12:22:59;3.58;;;2.30;;
22965;SDS011;11649;48.090;9.754;2023-07-29T12:25:31;3.58;;;2.08;;
22965;SDS011;11649;48.090;9.754;2023-07-29T12:28:02;3.50;;;2.13;;
22965;SDS011;11649;48.090;9.754;2023-07-29T12:30:33;3.20;;;2.33;;
22965;SDS011;11649;48.090;9.754;2023-07-29T12:33:00;2.40;;;2.05;;
22965;SDS011;11649;48.090;9.754;2023-07-29T12:35:33;3.47;;;2.25;;
22965;SDS011;11649;48.090;9.754;2023-07-29T12:38:01;2.20;;;1.95;;
22965;SDS011;11649;48.090;9.754;2023-07-29T12:40:28;2.92;;;2.10;;
22965;SDS011;11649;48.090;9.754;2023-07-29T12:42:55;2.10;;;1.90;;
22965;SDS011;11649;48.090;9.754;2023-07-29T12:45:23;4.32;;;2.00;;
22965;SDS011;11649;48.090;9.754;2023-07-29T12:47:52;3.10;;;2.10;;
22965;SDS011;11649;48.090;9.754;2023-07-29T12:50:20;3.80;;;2.05;;
22965;SDS011;11649;48.090;9.754;2023-07-29T12:52:47;3.25;;;2.10;;
22965;SDS011;11649;48.090;9.754;2023-07-29T12:55:14;2.55;;;2.00;;
22965;SDS011;11649;48.090;9.754;2023-07-29T12:57:43;2.10;;;1.90;;
22965;SDS011;11649;48.090;9.754;2023-07-29T13:00:12;6.22;;;1.88;;
22965;SDS011;11649;48.090;9.754;2023-07-29T13:02:39;2.80;;;1.90;;
22965;SDS011;11649;48.090;9.754;2023-07-29T13:05:08;2.67;;;1.90;;
22965;SDS011;11649;48.090;9.754;2023-07-29T13:07:39;2.35;;;1.88;;
22965;SDS011;11649;48.090;9.754;2023-07-29T13:10:07;2.42;;;1.90;;
22965;SDS011;11649;48.090;9.754;2023-07-29T13:12:35;2.28;;;1.80;;
22965;SDS011;11649;48.090;9.754;2023-07-29T13:15:02;1.88;;;1.73;;
22965;SDS011;11649;48.090;9.754;2023-07-29T13:17:29;2.65;;;2.00;;
22965;SDS011;11649;48.090;9.754;2023-07-29T13:19:56;2.20;;;1.98;;
22965;SDS011;11649;48.090;9.754;2023-07-29T13:22:23;3.22;;;2.05;;
22965;SDS011;11649;48.090;9.754;2023-07-29T13:24:50;3.85;;;1.90;;
22965;SDS011;11649;48.090;9.754;2023-07-29T13:27:16;2.60;;;1.75;;
22965;SDS011;11649;48.090;9.754;2023-07-29T13:29:43;1.80;;;1.70;;
22965;SDS011;11649;48.090;9.754;2023-07-29T13:32:10;2.05;;;1.65;;
22965;SDS011;11649;48.090;9.754;2023-07-29T13:34:37;4.55;;;1.85;;
22965;SDS011;11649;48.090;9.754;2023-07-29T13:37:06;1.92;;;1.50;;
22965;SDS011;11649;48.090;9.754;2023-07-29T13:39:33;2.30;;;1.98;;
22965;SDS011;11649;48.090;9.754;2023-07-29T13:41:59;2.40;;;1.90;;
22965;SDS011;11649;48.090;9.754;2023-07-29T13:44:28;3.20;;;1.80;;
22965;SDS011;11649;48.090;9.754;2023-07-29T13:46:55;1.80;;;1.70;;
22965;SDS011;11649;48.090;9.754;2023-07-29T13:49:22;2.40;;;1.70;;
22965;SDS011;11649;48.090;9.754;2023-07-29T13:51:51;2.20;;;1.98;;
22965;SDS011;11649;48.090;9.754;2023-07-29T13:54:18;2.78;;;2.08;;
22965;SDS011;11649;48.090;9.754;2023-07-29T13:56:45;2.28;;;2.00;;
22965;SDS011;11649;48.090;9.754;2023-07-29T13:59:12;2.25;;;2.05;;
22965;SDS011;11649;48.090;9.754;2023-07-29T14:01:39;3.83;;;2.10;;
22965;SDS011;11649;48.090;9.754;2023-07-29T14:04:05;3.67;;;2.20;;
22965;SDS011;11649;48.090;9.754;2023-07-29T14:06:32;2.00;;;1.80;;
22965;SDS011;11649;48.090;9.754;2023-07-29T14:09:11;2.35;;;2.03;;
22965;SDS011;11649;48.090;9.754;2023-07-29T14:11:37;2.80;;;1.95;;
22965;SDS011;11649;48.090;9.754;2023-07-29T14:14:05;2.60;;;2.10;;
22965;SDS011;11649;48.090;9.754;2023-07-29T14:16:32;3.15;;;2.10;;
22965;SDS011;11649;48.090;9.754;2023-07-29T14:19:00;2.60;;;1.90;;
22965;SDS011;11649;48.090;9.754;2023-07-29T14:21:27;2.88;;;2.10;;
22965;SDS011;11649;48.090;9.754;2023-07-29T14:23:53;2.50;;;2.10;;
22965;SDS011;11649;48.090;9.754;2023-07-29T14:26:20;2.40;;;2.10;;
22965;SDS011;11649;48.090;9.754;2023-07-29T14:31:33;3.03;;;2.17;;
22965;SDS011;11649;48.090;9.754;2023-07-29T14:34:00;2.40;;;2.17;;
22965;SDS011;11649;48.090;9.754;2023-07-29T14:36:27;2.25;;;1.90;;
22965;SDS011;11649;48.090;9.754;2023-07-29T14:38:55;2.60;;;2.00;;
22965;SDS011;11649;48.090;9.754;2023-07-29T14:41:21;2.80;;;2.25;;
22965;SDS011;11649;48.090;9.754;2023-07-29T14:43:48;3.35;;;2.20;;
22965;SDS011;11649;48.090;9.754;2023-07-29T14:46:15;3.50;;;2.20;;
22965;SDS011;11649;48.090;9.754;2023-07-29T14:48:43;3.25;;;2.25;;
22965;SDS011;11649;48.090;9.754;2023-07-29T14:51:10;5.82;;;2.10;;
22965;SDS011;11649;48.090;9.754;2023-07-29T14:53:37;3.35;;;2.50;;
22965;SDS011;11649;48.090;9.754;2023-07-29T14:56:04;4.75;;;2.55;;
22965;SDS011;11649;48.090;9.754;2023-07-29T14:58:31;4.05;;;2.50;;
22965;SDS011;11649;48.090;9.754;2023-07-29T15:00:57;2.78;;;2.28;;
22965;SDS011;11649;48.090;9.754;2023-07-29T15:03:24;2.95;;;2.30;;
22965;SDS011;11649;48.090;9.754;2023-07-29T15:05:51;3.58;;;2.28;;
22965;SDS011;11649;48.090;9.754;2023-07-29T15:08:18;2.50;;;2.30;;
22965;SDS011;11649;48.090;9.754;2023-07-29T15:10:45;4.07;;;2.40;;